sensor_id;sensor_type;location;lat;lon;timestamp;P1;durP1;ratioP1;P2;durP2;ratioP2
24743;SDS011;12844;52.110;5.548;2023-07-20T00:01:13;2.95;;;2.30;;
24743;SDS011;12844;52.110;5.548;2023-07-20T00:03:39;2.03;;;1.83;;
24743;SDS011;12844;52.110;5.548;2023-07-20T00:06:04;3.67;;;2.20;;
24743;SDS011;12844;52.110;5.548;2023-07-20T00:08:30;3.15;;;2.20;;
24743;SDS011;12844;52.110;5.548;2023-07-20T00:10:55;2.72;;;1.95;;
24743;SDS011;12844;52.110;5.548;2023-07-20T00:13:21;2.58;;;1.95;;
24743;SDS011;12844;52.110;5.548;2023-07-20T00:15:47;3.05;;;2.03;;
24743;SDS011;12844;52.110;5.548;2023-07-20T00:18:13;2.55;;;2.20;;
24743;SDS011;12844;52.110;5.548;2023-07-20T00:20:38;2.22;;;1.83;;
24743;SDS011;12844;52.110;5.548;2023-07-20T00:25:39;3.25;;;2.10;;
24743;SDS011;12844;52.110;5.548;2023-07-20T00:28:05;2.58;;;2.13;;
24743;SDS011;12844;52.110;5.548;2023-07-20T00:30:30;2.00;;;1.80;;
24743;SDS011;12844;52.110;5.548;2023-07-20T00:32:56;2.60;;;1.77;;
24743;SDS011;12844;52.110;5.548;2023-07-20T00:35:21;3.40;;;2.17;;
24743;SDS011;12844;52.110;5.548;2023-07-20T00:37:47;3.00;;;2.10;;
24743;SDS011;12844;52.110;5.548;2023-07-20T00:40:12;2.78;;;2.00;;
24743;SDS011;12844;52.110;5.548;2023-07-20T00:42:38;2.53;;;2.08;;
24743;SDS011;12844;52.110;5.548;2023-07-20T00:55:25;2.47;;;1.70;;
24743;SDS011;12844;52.110;5.548;2023-07-20T00:57:53;1.95;;;1.77;;
24743;SDS011;12844;52.110;5.548;2023-07-20T01:00:19;2.17;;;1.50;;
24743;SDS011;12844;52.110;5.548;2023-07-20T01:02:45;1.92;;;1.70;;
24743;SDS011;12844;52.110;5.548;2023-07-20T01:05:10;2.28;;;1.83;;
24743;SDS011;12844;52.110;5.548;2023-07-20T01:10:29;2.03;;;1.70;;
24743;SDS011;12844;52.110;5.548;2023-07-20T01:13:01;2.20;;;1.55;;
24743;SDS011;12844;52.110;5.548;2023-07-20T01:15:27;2.05;;;1.70;;
24743;SDS011;12844;52.110;5.548;2023-07-20T01:17:52;2.67;;;1.85;;
24743;SDS011;12844;52.110;5.548;2023-07-20T01:20:19;2.08;;;1.60;;
24743;SDS011;12844;52.110;5.548;2023-07-20T01:23:01;2.53;;;1.80;;
24743;SDS011;12844;52.110;5.548;2023-07-20T01:25:45;2.60;;;1.67;;
24743;SDS011;12844;52.110;5.548;2023-07-20T01:28:48;2.17;;;1.60;;
24743;SDS011;12844;52.110;5.548;2023-07-20T01:31:27;2.05;;;1.63;;
24743;SDS011;12844;52.110;5.548;2023-07-20T01:33:57;2.10;;;1.50;;
24743;SDS011;12844;52.110;5.548;2023-07-20T01:36:24;2.10;;;1.58;;
24743;SDS011;12844;52.110;5.548;2023-07-20T01:38:53;3.10;;;1.42;;
24743;SDS011;12844;52.110;5.548;2023-07-20T01:41:19;3.00;;;1.33;;
24743;SDS011;12844;52.110;5.548;2023-07-20T01:43:45;1.88;;;1.52;;
24743;SDS011;12844;52.110;5.548;2023-07-20T01:46:11;3.03;;;1.60;;
24743;SDS011;12844;52.110;5.548;2023-07-20T01:48:37;1.60;;;1.40;;
24743;SDS011;12844;52.110;5.548;2023-07-20T01:51:02;2.00;;;1.25;;
24743;SDS011;12844;52.110;5.548;2023-07-20T01:53:28;3.95;;;1.50;;
24743;SDS011;12844;52.110;5.548;2023-07-20T01:55:53;1.92;;;1.50;;
24743;SDS011;12844;52.110;5.548;2023-07-20T01:58:22;1.85;;;1.20;;
24743;SDS011;12844;52.110;5.548;2023-07-20T02:00:47;1.95;;;1.48;;
24743;SDS011;12844;52.110;5.548;2023-07-20T02:03:13;1.70;;;1.27;;
24743;SDS011;12844;52.110;5.548;2023-07-20T02:05:39;2.65;;;1.70;;
24743;SDS011;12844;52.110;5.548;2023-07-20T02:08:04;1.95;;;1.25;;
24743;SDS011;12844;52.110;5.548;2023-07-20T02:10:30;2.15;;;1.25;;
24743;SDS011;12844;52.110;5.548;2023-07-20T02:12:56;4.25;;;1.40;;
24743;SDS011;12844;52.110;5.548;2023-07-20T02:15:21;2.22;;;1.40;;
24743;SDS011;12844;52.110;5.548;2023-07-20T02:17:47;1.92;;;1.35;;
24743;SDS011;12844;52.110;5.548;2023-07-20T02:20:13;1.80;;;1.30;;
24743;SDS011;12844;52.110;5.548;2023-07-20T02:22:38;2.58;;;1.20;;
24743;SDS011;12844;52.110;5.548;2023-07-20T02:25:05;1.55;;;1.40;;
24743;SDS011;12844;52.110;5.548;2023-07-20T02:27:32;1.20;;;1.10;;
24743;SDS011;12844;52.110;5.548;2023-07-20T02:29:58;1.83;;;1.27;;
24743;SDS011;12844;52.110;5.548;2023-07-20T02:32:23;1.35;;;1.25;;
24743;SDS011;12844;52.110;5.548;2023-07-20T02:34:49;2.88;;;1.55;;
24743;SDS011;12844;52.110;5.548;2023-07-20T02:37:15;1.27;;;1.17;;
24743;SDS011;12844;52.110;5.548;2023-07-20T02:39:41;1.60;;;1.10;;
24743;SDS011;12844;52.110;5.548;2023-07-20T02:42:07;1.55;;;1.20;;
24743;SDS011;12844;52.110;5.548;2023-07-20T02:44:32;1.50;;;0.90;;
24743;SDS011;12844;52.110;5.548;2023-07-20T02:46:58;1.20;;;1.10;;
24743;SDS011;12844;52.110;5.548;2023-07-20T02:49:23;2.40;;;1.17;;
24743;SDS011;12844;52.110;5.548;2023-07-20T02:51:49;1.10;;;0.98;;
24743;SDS011;12844;52.110;5.548;2023-07-20T02:54:14;1.60;;;1.17;;
24743;SDS011;12844;52.110;5.548;2023-07-20T02:56:40;1.15;;;0.93;;
24743;SDS011;12844;52.110;5.548;2023-07-20T02:59:06;1.10;;;0.90;;
24743;SDS011;12844;52.110;5.548;2023-07-20T03:01:31;1.10;;;1.00;;
24743;SDS011;12844;52.110;5.548;2023-07-20T03:03:57;1.65;;;1.17;;
24743;SDS011;12844;52.110;5.548;2023-07-20T03:06:23;1.20;;;1.10;;
24743;SDS011;12844;52.110;5.548;2023-07-20T03:08:48;1.38;;;1.20;;
24743;SDS011;12844;52.110;5.548;2023-07-20T03:11:18;1.55;;;1.20;;
24743;SDS011;12844;52.110;5.548;2023-07-20T03:13:45;2.17;;;0.90;;
24743;SDS011;12844;52.110;5.548;2023-07-20T03:16:12;1.45;;;1.00;;
24743;SDS011;12844;52.110;5.548;2023-07-20T03:18:40;1.02;;;0.95;;
24743;SDS011;12844;52.110;5.548;2023-07-20T03:21:06;2.05;;;1.42;;
24743;SDS011;12844;52.110;5.548;2023-07-20T03:23:32;0.85;;;0.85;;
24743;SDS011;12844;52.110;5.548;2023-07-20T03:25:58;1.13;;;1.00;;
24743;SDS011;12844;52.110;5.548;2023-07-20T03:28:24;1.13;;;1.02;;
24743;SDS011;12844;52.110;5.548;2023-07-20T03:30:53;1.00;;;0.85;;
24743;SDS011;12844;52.110;5.548;2023-07-20T03:33:25;1.15;;;1.00;;
24743;SDS011;12844;52.110;5.548;2023-07-20T03:35:52;0.90;;;0.90;;
24743;SDS011;12844;52.110;5.548;2023-07-20T03:38:18;1.10;;;1.00;;
24743;SDS011;12844;52.110;5.548;2023-07-20T03:40:50;1.20;;;1.02;;
24743;SDS011;12844;52.110;5.548;2023-07-20T03:43:16;1.20;;;1.00;;
24743;SDS011;12844;52.110;5.548;2023-07-20T03:45:42;1.10;;;1.00;;
24743;SDS011;12844;52.110;5.548;2023-07-20T03:48:07;1.13;;;1.02;;
24743;SDS011;12844;52.110;5.548;2023-07-20T03:50:33;0.90;;;0.70;;
24743;SDS011;12844;52.110;5.548;2023-07-20T03:52:58;1.00;;;0.80;;
24743;SDS011;12844;52.110;5.548;2023-07-20T03:55:24;1.80;;;1.13;;
24743;SDS011;12844;52.110;5.548;2023-07-20T03:57:50;1.00;;;0.90;;
24743;SDS011;12844;52.110;5.548;2023-07-20T04:00:16;0.85;;;0.80;;
24743;SDS011;12844;52.110;5.548;2023-07-20T04:02:42;2.42;;;1.10;;
24743;SDS011;12844;52.110;5.548;2023-07-20T04:05:08;1.70;;;0.70;;
24743;SDS011;12844;52.110;5.548;2023-07-20T04:07:33;1.10;;;0.80;;
24743;SDS011;12844;52.110;5.548;2023-07-20T04:09:59;2.40;;;0.93;;
24743;SDS011;12844;52.110;5.548;2023-07-20T04:12:24;1.60;;;0.90;;
24743;SDS011;12844;52.110;5.548;2023-07-20T04:14:50;1.30;;;0.90;;
24743;SDS011;12844;52.110;5.548;2023-07-20T04:17:15;1.33;;;0.93;;
24743;SDS011;12844;52.110;5.548;2023-07-20T04:19:42;1.45;;;0.90;;
24743;SDS011;12844;52.110;5.548;2023-07-20T04:22:07;1.55;;;0.90;;
24743;SDS011;12844;52.110;5.548;2023-07-20T04:24:33;1.42;;;1.00;;
24743;SDS011;12844;52.110;5.548;2023-07-20T04:26:58;0.82;;;0.80;;
24743;SDS011;12844;52.110;5.548;2023-07-20T04:29:24;1.77;;;0.80;;
24743;SDS011;12844;52.110;5.548;2023-07-20T04:31:49;1.55;;;0.90;;
24743;SDS011;12844;52.110;5.548;2023-07-20T04:34:15;0.98;;;0.80;;
24743;SDS011;12844;52.110;5.548;2023-07-20T04:36:40;1.48;;;0.88;;
24743;SDS011;12844;52.110;5.548;2023-07-20T04:39:06;0.73;;;0.65;;
24743;SDS011;12844;52.110;5.548;2023-07-20T04:41:33;1.00;;;0.80;;
24743;SDS011;12844;52.110;5.548;2023-07-20T04:43:59;0.80;;;0.80;;
24743;SDS011;12844;52.110;5.548;2023-07-20T04:46:24;0.80;;;0.80;;
24743;SDS011;12844;52.110;5.548;2023-07-20T04:48:50;0.70;;;0.70;;
24743;SDS011;12844;52.110;5.548;2023-07-20T04:51:15;0.77;;;0.77;;
24743;SDS011;12844;52.110;5.548;2023-07-20T04:53:45;1.13;;;0.80;;
24743;SDS011;12844;52.110;5.548;2023-07-20T04:56:14;0.80;;;0.70;;
24743;SDS011;12844;52.110;5.548;2023-07-20T04:58:39;1.75;;;0.90;;
24743;SDS011;12844;52.110;5.548;2023-07-20T05:01:05;0.98;;;0.85;;
24743;SDS011;12844;52.110;5.548;2023-07-20T05:03:30;0.90;;;0.80;;
24743;SDS011;12844;52.110;5.548;2023-07-20T05:05:56;1.75;;;0.70;;
24743;SDS011;12844;52.110;5.548;2023-07-20T05:08:22;0.80;;;0.80;;
24743;SDS011;12844;52.110;5.548;2023-07-20T05:10:48;0.95;;;0.90;;
24743;SDS011;12844;52.110;5.548;2023-07-20T05:13:14;0.93;;;0.80;;
24743;SDS011;12844;52.110;5.548;2023-07-20T05:15:39;0.90;;;0.77;;
24743;SDS011;12844;52.110;5.548;2023-07-20T05:18:05;0.70;;;0.70;;
24743;SDS011;12844;52.110;5.548;2023-07-20T05:20:31;0.80;;;0.80;;
24743;SDS011;12844;52.110;5.548;2023-07-20T05:22:58;1.45;;;0.70;;
24743;SDS011;12844;52.110;5.548;2023-07-20T05:25:24;0.77;;;0.70;;
24743;SDS011;12844;52.110;5.548;2023-07-20T05:27:49;0.80;;;0.80;;
24743;SDS011;12844;52.110;5.548;2023-07-20T05:30:15;0.95;;;0.80;;
24743;SDS011;12844;52.110;5.548;2023-07-20T05:32:41;0.70;;;0.70;;
24743;SDS011;12844;52.110;5.548;2023-07-20T05:35:07;1.10;;;0.85;;
24743;SDS011;12844;52.110;5.548;2023-07-20T05:37:33;0.90;;;0.70;;
24743;SDS011;12844;52.110;5.548;2023-07-20T05:39:59;1.00;;;0.73;;
24743;SDS011;12844;52.110;5.548;2023-07-20T05:42:24;0.90;;;0.70;;
24743;SDS011;12844;52.110;5.548;2023-07-20T05:44:50;1.30;;;0.80;;
24743;SDS011;12844;52.110;5.548;2023-07-20T05:47:17;0.98;;;0.88;;
24743;SDS011;12844;52.110;5.548;2023-07-20T05:49:43;1.92;;;0.90;;
24743;SDS011;12844;52.110;5.548;2023-07-20T05:52:09;1.42;;;0.82;;
24743;SDS011;12844;52.110;5.548;2023-07-20T05:54:34;1.33;;;0.80;;
24743;SDS011;12844;52.110;5.548;2023-07-20T05:57:00;0.75;;;0.75;;
24743;SDS011;12844;52.110;5.548;2023-07-20T05:59:26;1.83;;;1.00;;
24743;SDS011;12844;52.110;5.548;2023-07-20T06:01:54;0.90;;;0.70;;
24743;SDS011;12844;52.110;5.548;2023-07-20T06:04:20;0.98;;;0.80;;
24743;SDS011;12844;52.110;5.548;2023-07-20T06:06:45;0.95;;;0.63;;
24743;SDS011;12844;52.110;5.548;2023-07-20T06:09:11;1.00;;;0.80;;
24743;SDS011;12844;52.110;5.548;2023-07-20T06:11:37;3.65;;;1.00;;
24743;SDS011;12844;52.110;5.548;2023-07-20T06:14:03;0.90;;;0.80;;
24743;SDS011;12844;52.110;5.548;2023-07-20T06:16:29;2.15;;;1.02;;
24743;SDS011;12844;52.110;5.548;2023-07-20T06:18:55;1.80;;;0.90;;
24743;SDS011;12844;52.110;5.548;2023-07-20T06:21:21;1.27;;;0.90;;
24743;SDS011;12844;52.110;5.548;2023-07-20T06:23:46;1.50;;;0.98;;
24743;SDS011;12844;52.110;5.548;2023-07-20T06:26:12;3.70;;;1.00;;
24743;SDS011;12844;52.110;5.548;2023-07-20T06:28:37;1.40;;;1.00;;
24743;SDS011;12844;52.110;5.548;2023-07-20T06:31:03;1.40;;;0.90;;
24743;SDS011;12844;52.110;5.548;2023-07-20T06:33:29;1.55;;;1.15;;
24743;SDS011;12844;52.110;5.548;2023-07-20T06:35:55;1.08;;;0.80;;
24743;SDS011;12844;52.110;5.548;2023-07-20T06:38:21;1.00;;;0.90;;
24743;SDS011;12844;52.110;5.548;2023-07-20T06:40:48;1.40;;;0.70;;
24743;SDS011;12844;52.110;5.548;2023-07-20T06:43:15;2.55;;;0.60;;
24743;SDS011;12844;52.110;5.548;2023-07-20T06:45:41;2.47;;;0.70;;
24743;SDS011;12844;52.110;5.548;2023-07-20T06:48:07;1.67;;;0.90;;
24743;SDS011;12844;52.110;5.548;2023-07-20T06:50:33;2.28;;;0.85;;
24743;SDS011;12844;52.110;5.548;2023-07-20T06:52:58;4.85;;;1.05;;
24743;SDS011;12844;52.110;5.548;2023-07-20T06:55:25;1.52;;;0.60;;
24743;SDS011;12844;52.110;5.548;2023-07-20T06:57:51;1.55;;;0.80;;
24743;SDS011;12844;52.110;5.548;2023-07-20T07:00:16;3.90;;;1.20;;
24743;SDS011;12844;52.110;5.548;2023-07-20T07:02:42;2.65;;;1.10;;
24743;SDS011;12844;52.110;5.548;2023-07-20T07:05:08;2.83;;;1.02;;
24743;SDS011;12844;52.110;5.548;2023-07-20T07:07:34;1.98;;;0.90;;
24743;SDS011;12844;52.110;5.548;2023-07-20T07:09:59;1.45;;;0.77;;
24743;SDS011;12844;52.110;5.548;2023-07-20T07:12:26;2.42;;;0.80;;
24743;SDS011;12844;52.110;5.548;2023-07-20T07:14:51;2.10;;;0.80;;
24743;SDS011;12844;52.110;5.548;2023-07-20T07:17:18;1.48;;;0.90;;
24743;SDS011;12844;52.110;5.548;2023-07-20T07:27:34;1.37;;;0.70;;
24743;SDS011;12844;52.110;5.548;2023-07-20T07:29:59;1.17;;;0.75;;
24743;SDS011;12844;52.110;5.548;2023-07-20T07:32:25;1.77;;;0.77;;
24743;SDS011;12844;52.110;5.548;2023-07-20T07:34:50;3.13;;;0.90;;
24743;SDS011;12844;52.110;5.548;2023-07-20T07:37:16;0.75;;;0.70;;
24743;SDS011;12844;52.110;5.548;2023-07-20T07:39:42;2.28;;;0.70;;
24743;SDS011;12844;52.110;5.548;2023-07-20T07:42:07;3.22;;;0.98;;
24743;SDS011;12844;52.110;5.548;2023-07-20T07:44:33;1.25;;;0.80;;
24743;SDS011;12844;52.110;5.548;2023-07-20T07:46:58;0.80;;;0.80;;
24743;SDS011;12844;52.110;5.548;2023-07-20T07:49:24;4.35;;;0.90;;
24743;SDS011;12844;52.110;5.548;2023-07-20T07:51:49;3.45;;;1.15;;
24743;SDS011;12844;52.110;5.548;2023-07-20T07:54:15;2.22;;;0.70;;
24743;SDS011;12844;52.110;5.548;2023-07-20T07:56:40;2.65;;;0.70;;
24743;SDS011;12844;52.110;5.548;2023-07-20T07:59:07;1.27;;;0.70;;
24743;SDS011;12844;52.110;5.548;2023-07-20T08:01:33;1.10;;;0.82;;
24743;SDS011;12844;52.110;5.548;2023-07-20T08:03:58;1.48;;;0.68;;
24743;SDS011;12844;52.110;5.548;2023-07-20T08:06:24;2.60;;;1.00;;
24743;SDS011;12844;52.110;5.548;2023-07-20T08:08:50;2.17;;;0.70;;
24743;SDS011;12844;52.110;5.548;2023-07-20T08:11:16;1.63;;;0.80;;
24743;SDS011;12844;52.110;5.548;2023-07-20T08:13:43;2.15;;;0.70;;
24743;SDS011;12844;52.110;5.548;2023-07-20T08:16:08;0.85;;;0.60;;
24743;SDS011;12844;52.110;5.548;2023-07-20T08:18:34;1.13;;;0.60;;
24743;SDS011;12844;52.110;5.548;2023-07-20T08:21:00;0.65;;;0.60;;
24743;SDS011;12844;52.110;5.548;2023-07-20T08:23:25;3.50;;;0.65;;
24743;SDS011;12844;52.110;5.548;2023-07-20T08:25:52;1.08;;;0.80;;
24743;SDS011;12844;52.110;5.548;2023-07-20T08:28:18;1.33;;;0.77;;
24743;SDS011;12844;52.110;5.548;2023-07-20T08:30:46;0.82;;;0.57;;
24743;SDS011;12844;52.110;5.548;2023-07-20T08:33:13;1.63;;;0.70;;
24743;SDS011;12844;52.110;5.548;2023-07-20T08:35:39;1.15;;;0.60;;
24743;SDS011;12844;52.110;5.548;2023-07-20T08:38:05;0.85;;;0.70;;
24743;SDS011;12844;52.110;5.548;2023-07-20T08:40:32;0.75;;;0.50;;
24743;SDS011;12844;52.110;5.548;2023-07-20T08:42:59;1.15;;;0.60;;
24743;SDS011;12844;52.110;5.548;2023-07-20T08:45:27;1.23;;;0.50;;
24743;SDS011;12844;52.110;5.548;2023-07-20T08:47:57;0.95;;;0.60;;
24743;SDS011;12844;52.110;5.548;2023-07-20T08:50:25;0.60;;;0.57;;
24743;SDS011;12844;52.110;5.548;2023-07-20T08:52:52;1.75;;;0.60;;
24743;SDS011;12844;52.110;5.548;2023-07-20T08:55:19;0.63;;;0.52;;
24743;SDS011;12844;52.110;5.548;2023-07-20T08:57:47;0.60;;;0.40;;
24743;SDS011;12844;52.110;5.548;2023-07-20T09:00:16;1.25;;;0.60;;
24743;SDS011;12844;52.110;5.548;2023-07-20T09:02:45;0.90;;;0.40;;
24743;SDS011;12844;52.110;5.548;2023-07-20T09:05:11;0.82;;;0.47;;
24743;SDS011;12844;52.110;5.548;2023-07-20T09:07:39;1.70;;;0.60;;
24743;SDS011;12844;52.110;5.548;2023-07-20T09:10:06;1.27;;;0.65;;
24743;SDS011;12844;52.110;5.548;2023-07-20T09:12:36;1.48;;;0.60;;
24743;SDS011;12844;52.110;5.548;2023-07-20T09:15:06;0.82;;;0.70;;
24743;SDS011;12844;52.110;5.548;2023-07-20T09:17:32;1.77;;;0.50;;
24743;SDS011;12844;52.110;5.548;2023-07-20T09:19:58;0.45;;;0.40;;
24743;SDS011;12844;52.110;5.548;2023-07-20T09:22:29;0.52;;;0.45;;
24743;SDS011;12844;52.110;5.548;2023-07-20T09:24:56;0.50;;;0.50;;
24743;SDS011;12844;52.110;5.548;2023-07-20T09:27:22;0.60;;;0.60;;
24743;SDS011;12844;52.110;5.548;2023-07-20T09:29:54;0.60;;;0.50;;
24743;SDS011;12844;52.110;5.548;2023-07-20T09:32:22;0.50;;;0.50;;
24743;SDS011;12844;52.110;5.548;2023-07-20T09:34:49;0.75;;;0.70;;
24743;SDS011;12844;52.110;5.548;2023-07-20T09:37:20;0.95;;;0.57;;
24743;SDS011;12844;52.110;5.548;2023-07-20T09:39:47;0.60;;;0.60;;
24743;SDS011;12844;52.110;5.548;2023-07-20T09:42:14;0.60;;;0.60;;
24743;SDS011;12844;52.110;5.548;2023-07-20T09:44:40;0.57;;;0.57;;
24743;SDS011;12844;52.110;5.548;2023-07-20T09:47:08;0.50;;;0.50;;
24743;SDS011;12844;52.110;5.548;2023-07-20T09:49:38;0.60;;;0.60;;
24743;SDS011;12844;52.110;5.548;2023-07-20T09:52:05;0.55;;;0.43;;
24743;SDS011;12844;52.110;5.548;2023-07-20T09:54:33;0.63;;;0.55;;
24743;SDS011;12844;52.110;5.548;2023-07-20T09:56:58;0.75;;;0.40;;
24743;SDS011;12844;52.110;5.548;2023-07-20T09:59:27;0.95;;;0.50;;
24743;SDS011;12844;52.110;5.548;2023-07-20T10:01:53;0.88;;;0.55;;
24743;SDS011;12844;52.110;5.548;2023-07-20T10:04:22;2.28;;;0.60;;
24743;SDS011;12844;52.110;5.548;2023-07-20T10:06:50;0.73;;;0.50;;
24743;SDS011;12844;52.110;5.548;2023-07-20T10:09:19;1.75;;;0.57;;
24743;SDS011;12844;52.110;5.548;2023-07-20T10:11:52;0.60;;;0.50;;
24743;SDS011;12844;52.110;5.548;2023-07-20T10:14:22;1.48;;;0.60;;
24743;SDS011;12844;52.110;5.548;2023-07-20T10:16:51;2.20;;;0.50;;
24743;SDS011;12844;52.110;5.548;2023-07-20T10:19:23;1.52;;;0.70;;
24743;SDS011;12844;52.110;5.548;2023-07-20T10:21:56;0.77;;;0.63;;
24743;SDS011;12844;52.110;5.548;2023-07-20T10:24:33;1.13;;;0.55;;
24743;SDS011;12844;52.110;5.548;2023-07-20T10:27:00;2.22;;;0.63;;
24743;SDS011;12844;52.110;5.548;2023-07-20T10:29:26;1.85;;;0.88;;
24743;SDS011;12844;52.110;5.548;2023-07-20T10:31:53;1.45;;;0.60;;
24743;SDS011;12844;52.110;5.548;2023-07-20T10:34:20;2.08;;;0.60;;
24743;SDS011;12844;52.110;5.548;2023-07-20T10:36:46;1.00;;;0.57;;
24743;SDS011;12844;52.110;5.548;2023-07-20T10:39:22;3.35;;;0.70;;
24743;SDS011;12844;52.110;5.548;2023-07-20T10:44:28;1.00;;;0.55;;
24743;SDS011;12844;52.110;5.548;2023-07-20T10:47:00;1.38;;;0.50;;
24743;SDS011;12844;52.110;5.548;2023-07-20T10:49:27;1.67;;;0.60;;
24743;SDS011;12844;52.110;5.548;2023-07-20T10:51:57;1.52;;;0.60;;
24743;SDS011;12844;52.110;5.548;2023-07-20T10:56:52;2.03;;;0.75;;
24743;SDS011;12844;52.110;5.548;2023-07-20T10:59:20;0.60;;;0.50;;
24743;SDS011;12844;52.110;5.548;2023-07-20T11:02:09;0.98;;;0.57;;
24743;SDS011;12844;52.110;5.548;2023-07-20T11:04:38;2.03;;;0.70;;
24743;SDS011;12844;52.110;5.548;2023-07-20T11:07:05;1.08;;;0.90;;
24743;SDS011;12844;52.110;5.548;2023-07-20T11:09:37;1.50;;;0.60;;
24743;SDS011;12844;52.110;5.548;2023-07-20T11:12:13;2.17;;;0.68;;
24743;SDS011;12844;52.110;5.548;2023-07-20T11:14:44;2.55;;;0.60;;
24743;SDS011;12844;52.110;5.548;2023-07-20T11:17:19;2.13;;;1.30;;
24743;SDS011;12844;52.110;5.548;2023-07-20T11:19:50;0.88;;;0.55;;
24743;SDS011;12844;52.110;5.548;2023-07-20T11:22:21;1.67;;;0.50;;
24743;SDS011;12844;52.110;5.548;2023-07-20T11:24:47;1.38;;;0.57;;
24743;SDS011;12844;52.110;5.548;2023-07-20T11:27:14;0.90;;;0.50;;
24743;SDS011;12844;52.110;5.548;2023-07-20T11:29:40;3.03;;;0.60;;
24743;SDS011;12844;52.110;5.548;2023-07-20T11:32:06;2.75;;;0.90;;
24743;SDS011;12844;52.110;5.548;2023-07-20T11:34:32;0.40;;;0.40;;
24743;SDS011;12844;52.110;5.548;2023-07-20T11:36:59;1.55;;;0.60;;
24743;SDS011;12844;52.110;5.548;2023-07-20T11:39:25;3.92;;;1.10;;
24743;SDS011;12844;52.110;5.548;2023-07-20T11:41:54;1.20;;;0.50;;
24743;SDS011;12844;52.110;5.548;2023-07-20T11:44:24;0.57;;;0.40;;
24743;SDS011;12844;52.110;5.548;2023-07-20T11:47:05;2.05;;;0.70;;
24743;SDS011;12844;52.110;5.548;2023-07-20T11:49:36;0.98;;;0.40;;
24743;SDS011;12844;52.110;5.548;2023-07-20T11:52:06;0.82;;;0.40;;
24743;SDS011;12844;52.110;5.548;2023-07-20T11:54:33;1.00;;;0.50;;
24743;SDS011;12844;52.110;5.548;2023-07-20T11:57:03;1.27;;;0.50;;
24743;SDS011;12844;52.110;5.548;2023-07-20T11:59:30;0.57;;;0.40;;
24743;SDS011;12844;52.110;5.548;2023-07-20T12:01:56;1.00;;;0.50;;
24743;SDS011;12844;52.110;5.548;2023-07-20T12:04:23;0.93;;;0.50;;
24743;SDS011;12844;52.110;5.548;2023-07-20T12:06:49;0.93;;;0.60;;
24743;SDS011;12844;52.110;5.548;2023-07-20T12:09:14;0.95;;;0.60;;
24743;SDS011;12844;52.110;5.548;2023-07-20T12:11:42;0.70;;;0.57;;
24743;SDS011;12844;52.110;5.548;2023-07-20T12:14:10;1.25;;;0.50;;
24743;SDS011;12844;52.110;5.548;2023-07-20T12:16:36;0.57;;;0.57;;
24743;SDS011;12844;52.110;5.548;2023-07-20T12:19:07;0.82;;;0.40;;
24743;SDS011;12844;52.110;5.548;2023-07-20T12:21:37;0.70;;;0.60;;
24743;SDS011;12844;52.110;5.548;2023-07-20T12:24:04;0.50;;;0.50;;
24743;SDS011;12844;52.110;5.548;2023-07-20T12:26:31;0.70;;;0.57;;
24743;SDS011;12844;52.110;5.548;2023-07-20T12:28:57;1.17;;;0.60;;
24743;SDS011;12844;52.110;5.548;2023-07-20T12:31:24;0.40;;;0.40;;
24743;SDS011;12844;52.110;5.548;2023-07-20T12:33:50;2.92;;;0.70;;
24743;SDS011;12844;52.110;5.548;2023-07-20T12:36:17;0.90;;;0.60;;
24743;SDS011;12844;52.110;5.548;2023-07-20T12:38:44;0.82;;;0.60;;
24743;SDS011;12844;52.110;5.548;2023-07-20T12:41:10;1.83;;;0.70;;
24743;SDS011;12844;52.110;5.548;2023-07-20T12:43:38;1.10;;;0.70;;
24743;SDS011;12844;52.110;5.548;2023-07-20T12:46:03;1.77;;;0.77;;
24743;SDS011;12844;52.110;5.548;2023-07-20T12:48:29;3.00;;;0.60;;
24743;SDS011;12844;52.110;5.548;2023-07-20T12:50:55;0.68;;;0.43;;
24743;SDS011;12844;52.110;5.548;2023-07-20T12:53:20;1.58;;;0.63;;
24743;SDS011;12844;52.110;5.548;2023-07-20T12:55:47;1.45;;;0.70;;
24743;SDS011;12844;52.110;5.548;2023-07-20T12:58:13;1.88;;;0.60;;
24743;SDS011;12844;52.110;5.548;2023-07-20T13:00:39;1.30;;;0.60;;
24743;SDS011;12844;52.110;5.548;2023-07-20T13:03:05;1.27;;;0.75;;
24743;SDS011;12844;52.110;5.548;2023-07-20T13:05:31;0.60;;;0.50;;
24743;SDS011;12844;52.110;5.548;2023-07-20T13:07:57;1.55;;;0.68;;
24743;SDS011;12844;52.110;5.548;2023-07-20T13:10:23;1.35;;;0.80;;
24743;SDS011;12844;52.110;5.548;2023-07-20T13:12:49;1.67;;;0.70;;
24743;SDS011;12844;52.110;5.548;2023-07-20T13:15:16;1.42;;;0.60;;
24743;SDS011;12844;52.110;5.548;2023-07-20T13:17:42;1.23;;;0.63;;
24743;SDS011;12844;52.110;5.548;2023-07-20T13:20:08;1.42;;;0.60;;
24743;SDS011;12844;52.110;5.548;2023-07-20T13:22:36;0.70;;;0.50;;
24743;SDS011;12844;52.110;5.548;2023-07-20T13:25:02;2.65;;;0.82;;
24743;SDS011;12844;52.110;5.548;2023-07-20T13:27:28;3.80;;;0.80;;
24743;SDS011;12844;52.110;5.548;2023-07-20T13:29:55;1.95;;;0.70;;
24743;SDS011;12844;52.110;5.548;2023-07-20T13:32:21;2.58;;;0.90;;
24743;SDS011;12844;52.110;5.548;2023-07-20T13:34:47;1.20;;;0.70;;
24743;SDS011;12844;52.110;5.548;2023-07-20T13:37:13;1.38;;;0.70;;
24743;SDS011;12844;52.110;5.548;2023-07-20T13:39:39;2.08;;;0.90;;
24743;SDS011;12844;52.110;5.548;2023-07-20T13:42:05;2.15;;;0.82;;
24743;SDS011;12844;52.110;5.548;2023-07-20T13:44:31;1.88;;;0.90;;
24743;SDS011;12844;52.110;5.548;2023-07-20T13:46:57;1.55;;;0.80;;
24743;SDS011;12844;52.110;5.548;2023-07-20T13:49:23;2.70;;;0.88;;
24743;SDS011;12844;52.110;5.548;2023-07-20T13:51:49;1.65;;;0.80;;
24743;SDS011;12844;52.110;5.548;2023-07-20T13:54:15;2.80;;;1.30;;
24743;SDS011;12844;52.110;5.548;2023-07-20T13:56:40;1.58;;;1.02;;
24743;SDS011;12844;52.110;5.548;2023-07-20T13:59:06;2.83;;;1.15;;
24743;SDS011;12844;52.110;5.548;2023-07-20T14:01:32;1.85;;;0.85;;
24743;SDS011;12844;52.110;5.548;2023-07-20T14:04:00;1.55;;;0.75;;
24743;SDS011;12844;52.110;5.548;2023-07-20T14:06:29;2.13;;;1.00;;
24743;SDS011;12844;52.110;5.548;2023-07-20T14:08:55;1.95;;;0.93;;
24743;SDS011;12844;52.110;5.548;2023-07-20T14:11:21;1.83;;;1.10;;
24743;SDS011;12844;52.110;5.548;2023-07-20T14:13:47;1.83;;;0.98;;
24743;SDS011;12844;52.110;5.548;2023-07-20T14:16:13;2.85;;;1.08;;
24743;SDS011;12844;52.110;5.548;2023-07-20T14:18:39;2.95;;;1.05;;
24743;SDS011;12844;52.110;5.548;2023-07-20T14:21:04;2.40;;;0.93;;
24743;SDS011;12844;52.110;5.548;2023-07-20T14:23:31;1.75;;;0.90;;
24743;SDS011;12844;52.110;5.548;2023-07-20T14:25:57;2.45;;;1.17;;
24743;SDS011;12844;52.110;5.548;2023-07-20T14:28:23;1.88;;;0.82;;
24743;SDS011;12844;52.110;5.548;2023-07-20T14:30:49;2.35;;;0.98;;
24743;SDS011;12844;52.110;5.548;2023-07-20T14:33:15;1.42;;;1.00;;
24743;SDS011;12844;52.110;5.548;2023-07-20T14:35:40;2.63;;;0.98;;
24743;SDS011;12844;52.110;5.548;2023-07-20T14:38:06;2.38;;;0.90;;
24743;SDS011;12844;52.110;5.548;2023-07-20T14:40:31;2.85;;;1.00;;
24743;SDS011;12844;52.110;5.548;2023-07-20T14:42:57;3.42;;;1.10;;
24743;SDS011;12844;52.110;5.548;2023-07-20T14:45:29;2.13;;;0.85;;
24743;SDS011;12844;52.110;5.548;2023-07-20T14:47:57;2.07;;;0.70;;
24743;SDS011;12844;52.110;5.548;2023-07-20T14:50:23;2.97;;;1.10;;
24743;SDS011;12844;52.110;5.548;2023-07-20T14:52:48;2.35;;;1.05;;
24743;SDS011;12844;52.110;5.548;2023-07-20T14:55:14;1.80;;;0.95;;
24743;SDS011;12844;52.110;5.548;2023-07-20T14:57:40;3.63;;;1.00;;
24743;SDS011;12844;52.110;5.548;2023-07-20T15:00:06;2.05;;;0.82;;
24743;SDS011;12844;52.110;5.548;2023-07-20T15:02:33;1.33;;;0.80;;
24743;SDS011;12844;52.110;5.548;2023-07-20T15:04:59;3.17;;;0.90;;
24743;SDS011;12844;52.110;5.548;2023-07-20T15:07:25;3.60;;;1.05;;
24743;SDS011;12844;52.110;5.548;2023-07-20T15:09:50;2.70;;;0.82;;
24743;SDS011;12844;52.110;5.548;2023-07-20T15:12:16;2.00;;;1.02;;
24743;SDS011;12844;52.110;5.548;2023-07-20T15:14:42;1.73;;;0.93;;